createdAt,value
2023-11-12T00:00:59.548Z,11.07
2023-11-12T00:03:28.851Z,10.60
2023-11-12T00:05:56.579Z,10.57
2023-11-12T00:08:24.360Z,9.70
2023-11-12T00:10:53.586Z,9.50
2023-11-12T00:13:21.288Z,9.07
2023-11-12T00:15:49.061Z,9.38
2023-11-12T00:18:17.465Z,8.75
2023-11-12T00:20:46.555Z,9.70
2023-11-12T00:23:14.576Z,9.77
2023-11-12T00:25:42.389Z,10.32
2023-11-12T00:28:10.235Z,9.65
2023-11-12T00:30:37.880Z,9.82
2023-11-12T00:33:07.386Z,10.23
2023-11-12T00:35:35.070Z,10.60
2023-11-12T00:38:04.263Z,10.60
2023-11-12T00:40:33.452Z,10.88
2023-11-12T00:43:01.143Z,11.20
2023-11-12T00:45:32.617Z,11.05
2023-11-12T00:48:01.506Z,11.90
2023-11-12T00:50:29.254Z,11.43
2023-11-12T00:52:57.162Z,11.90
2023-11-12T00:55:26.171Z,11.35
2023-11-12T00:57:53.953Z,10.77
2023-11-12T01:00:22.492Z,12.15
2023-11-12T01:02:50.489Z,11.48
2023-11-12T01:05:18.658Z,12.45
2023-11-12T01:07:46.341Z,11.93
2023-11-12T01:10:14.279Z,12.88
2023-11-12T01:12:43.525Z,12.32
2023-11-12T01:15:12.749Z,12.05
2023-11-12T01:17:40.631Z,12.50
2023-11-12T01:20:11.313Z,11.63
2023-11-12T01:22:39.243Z,11.85
2023-11-12T01:25:07.429Z,12.35
2023-11-12T01:27:35.928Z,12.00
2023-11-12T01:30:06.782Z,10.40
2023-11-12T01:32:34.957Z,11.25
2023-11-12T01:35:04.156Z,11.25
2023-11-12T01:37:33.181Z,11.68
2023-11-12T01:40:00.983Z,12.18
2023-11-12T01:42:28.827Z,12.07
2023-11-12T01:44:56.489Z,11.95
2023-11-12T01:47:27.034Z,10.82
2023-11-12T01:49:55.078Z,10.80
2023-11-12T01:52:24.200Z,10.52
2023-11-12T01:54:51.846Z,9.20
2023-11-12T01:57:19.813Z,10.13
2023-11-12T01:59:48.546Z,11.02
2023-11-12T02:02:17.725Z,10.30
2023-11-12T02:04:47.286Z,10.05
2023-11-12T02:07:16.484Z,10.07
2023-11-12T02:09:44.420Z,10.57
2023-11-12T02:12:14.457Z,10.65
2023-11-12T02:14:42.705Z,9.13
2023-11-12T02:17:10.428Z,10.10
2023-11-12T02:19:38.062Z,9.25
2023-11-12T02:22:07.587Z,9.85
2023-11-12T02:24:36.820Z,9.45
2023-11-12T02:27:05.208Z,9.55
2023-11-12T02:29:33.141Z,10.75
2023-11-12T02:32:01.371Z,10.77
2023-11-12T02:34:28.965Z,10.30
2023-11-12T02:36:56.540Z,10.70
2023-11-12T02:39:24.688Z,10.98
2023-11-12T02:41:54.754Z,11.52
2023-11-12T02:44:22.640Z,11.38
2023-11-12T02:46:50.600Z,10.70
2023-11-12T02:49:29.488Z,11.27
2023-11-12T02:51:57.207Z,11.20
2023-11-12T02:54:24.925Z,11.90
2023-11-12T02:56:54.269Z,11.60
2023-11-12T02:59:22.325Z,13.05
2023-11-12T03:01:51.378Z,12.07
2023-11-12T03:04:19.510Z,12.50
2023-11-12T03:06:49.297Z,12.20
2023-11-12T03:09:17.040Z,12.15
2023-11-12T03:11:45.683Z,12.40
2023-11-12T03:14:14.700Z,11.52
2023-11-12T03:16:42.504Z,12.25
2023-11-12T03:19:12.110Z,12.45
2023-11-12T03:21:40.901Z,11.85
2023-11-12T03:24:09.885Z,13.50
2023-11-12T03:26:38.124Z,12.50
2023-11-12T03:29:06.262Z,13.93
2023-11-12T03:31:36.799Z,13.00
2023-11-12T03:34:04.637Z,13.07
2023-11-12T03:36:32.255Z,12.82
2023-11-12T03:38:59.915Z,13.40
2023-11-12T03:41:27.724Z,13.35
2023-11-12T03:43:55.930Z,12.55
2023-11-12T03:46:23.700Z,14.10
2023-11-12T03:48:52.796Z,12.95
2023-11-12T03:51:20.503Z,13.25
2023-11-12T03:53:48.094Z,14.85
2023-11-12T03:56:15.636Z,12.75
2023-11-12T03:58:43.208Z,13.35
2023-11-12T04:01:11.381Z,14.70
2023-11-12T04:03:39.550Z,12.80
2023-11-12T04:06:09.574Z,12.20
2023-11-12T04:08:37.548Z,11.43
2023-11-12T04:11:05.852Z,12.02
2023-11-12T04:13:33.520Z,11.13
2023-11-12T04:16:01.935Z,11.85
2023-11-12T04:18:29.666Z,11.45
2023-11-12T04:20:57.292Z,10.57
2023-11-12T04:23:26.783Z,11.02
2023-11-12T04:25:54.870Z,11.00
2023-11-12T04:28:27.026Z,11.25
2023-11-12T04:30:55.312Z,11.18
2023-11-12T04:33:23.003Z,10.65
2023-11-12T04:35:53.337Z,10.55
2023-11-12T04:38:21.593Z,10.20
2023-11-12T04:40:53.844Z,10.55
2023-11-12T04:43:21.728Z,10.48
2023-11-12T04:45:49.414Z,10.80
2023-11-12T04:48:17.276Z,10.40
2023-11-12T04:50:44.926Z,10.27
2023-11-12T04:53:13.075Z,9.93
2023-11-12T04:55:41.355Z,9.77
2023-11-12T04:58:10.699Z,10.45
2023-11-12T05:00:41.463Z,10.30
2023-11-12T05:03:09.341Z,10.20
2023-11-12T05:05:37.322Z,9.70
2023-11-12T05:08:05.504Z,10.75
2023-11-12T05:10:44.656Z,10.75
2023-11-12T05:13:15.298Z,9.88
2023-11-12T05:15:43.136Z,9.85
2023-11-12T05:18:11.674Z,9.38
2023-11-12T05:20:39.443Z,10.75
2023-11-12T05:23:07.510Z,10.70
2023-11-12T05:25:35.164Z,11.40
2023-11-12T05:28:02.876Z,10.48
2023-11-12T05:30:31.922Z,9.90
2023-11-12T05:33:00.666Z,9.63
2023-11-12T05:35:28.649Z,10.82
2023-11-12T05:37:56.462Z,10.98
2023-11-12T05:40:24.127Z,10.05
2023-11-12T05:42:52.197Z,11.10
2023-11-12T05:45:20.474Z,10.25
2023-11-12T05:47:49.593Z,10.30
2023-11-12T05:50:17.306Z,10.13
2023-11-12T05:52:44.994Z,9.50
2023-11-12T05:55:12.757Z,9.25
2023-11-12T05:57:41.643Z,10.32
2023-11-12T06:00:11.943Z,10.55
2023-11-12T06:02:40.357Z,10.32
2023-11-12T06:05:10.263Z,10.13
2023-11-12T06:07:38.033Z,9.30
2023-11-12T06:10:05.952Z,9.52
2023-11-12T06:12:33.763Z,9.32
2023-11-12T06:15:01.568Z,10.00
2023-11-12T06:17:29.525Z,9.57
2023-11-12T06:19:57.177Z,10.60
2023-11-12T06:22:26.286Z,10.07
2023-11-12T06:24:54.011Z,10.32
2023-11-12T06:27:22.706Z,10.70
2023-11-12T06:29:51.619Z,11.02
2023-11-12T06:32:19.296Z,10.98
2023-11-12T06:34:47.942Z,10.38
2023-11-12T06:37:16.569Z,10.63
2023-11-12T06:39:45.752Z,10.07
2023-11-12T06:42:13.639Z,10.88
2023-11-12T06:44:41.475Z,10.98
2023-11-12T06:47:09.120Z,9.98
2023-11-12T06:49:36.734Z,12.00
2023-11-12T06:52:04.691Z,11.07
2023-11-12T06:54:32.416Z,10.95
2023-11-12T06:57:01.937Z,10.80
2023-11-12T06:59:29.834Z,11.77
2023-11-12T07:01:57.510Z,12.52
2023-11-12T07:04:25.418Z,12.20
2023-11-12T07:07:05.538Z,11.68
2023-11-12T07:09:37.582Z,12.25
2023-11-12T07:12:07.838Z,12.23
2023-11-12T07:14:35.769Z,11.88
2023-11-12T07:17:04.133Z,11.60
2023-11-12T07:19:31.786Z,11.52
2023-11-12T07:22:00.287Z,11.20
2023-11-12T07:24:28.016Z,11.93
2023-11-12T07:26:55.754Z,12.65
2023-11-12T07:29:25.019Z,11.82
2023-11-12T07:31:52.719Z,11.65
2023-11-12T07:34:20.294Z,12.50
2023-11-12T07:36:48.681Z,12.15
2023-11-12T07:39:17.268Z,11.65
2023-11-12T07:41:45.447Z,11.65
2023-11-12T07:44:21.108Z,11.77
2023-11-12T07:46:50.743Z,11.68
2023-11-12T07:49:18.476Z,11.98
2023-11-12T07:51:49.966Z,11.77
2023-11-12T07:54:17.810Z,11.68
2023-11-12T07:56:45.695Z,11.95
2023-11-12T07:59:13.418Z,12.55
2023-11-12T08:01:41.710Z,12.50
2023-11-12T08:04:11.530Z,12.20
2023-11-12T08:06:39.202Z,12.35
2023-11-12T08:09:07.874Z,12.13
2023-11-12T08:11:40.207Z,12.50
2023-11-12T08:14:10.092Z,12.85
2023-11-12T08:16:38.388Z,12.57
2023-11-12T08:19:07.062Z,12.80
2023-11-12T08:21:36.336Z,12.55
2023-11-12T08:24:05.104Z,12.38
2023-11-12T08:26:33.725Z,12.57
2023-11-12T08:29:02.210Z,13.02
2023-11-12T08:31:31.709Z,13.40
2023-11-12T08:34:01.012Z,13.27
2023-11-12T08:36:30.263Z,13.43
2023-11-12T08:38:59.734Z,14.00
2023-11-12T08:41:27.682Z,14.30
2023-11-12T08:43:55.299Z,13.95
2023-11-12T08:46:24.228Z,16.45
2023-11-12T08:48:52.545Z,14.82
2023-11-12T08:51:20.797Z,14.30
2023-11-12T08:53:48.401Z,15.52
2023-11-12T08:56:17.611Z,15.07
2023-11-12T08:58:45.456Z,15.75
2023-11-12T09:01:13.277Z,14.35
2023-11-12T09:03:41.501Z,15.07
2023-11-12T09:06:09.455Z,14.73
2023-11-12T09:08:37.134Z,16.75
2023-11-12T09:11:04.895Z,15.95
2023-11-12T09:13:34.029Z,15.00
2023-11-12T09:16:01.750Z,15.02
2023-11-12T09:18:30.108Z,14.93
2023-11-12T09:20:58.130Z,15.93
2023-11-12T09:23:25.433Z,15.32
2023-11-12T09:25:53.122Z,14.90
2023-11-12T09:28:20.900Z,14.80
2023-11-12T09:30:57.860Z,16.10
2023-11-12T09:33:28.956Z,14.90
2023-11-12T09:35:56.698Z,12.98
2023-11-12T09:38:24.417Z,14.18
2023-11-12T09:40:54.050Z,14.95
2023-11-12T09:43:26.087Z,14.50
2023-11-12T09:45:57.519Z,15.68
2023-11-12T09:48:36.679Z,13.93
2023-11-12T09:51:06.464Z,14.55
2023-11-12T09:53:35.335Z,15.88
2023-11-12T09:56:09.775Z,16.85
2023-11-12T09:58:38.615Z,16.35
2023-11-12T10:01:09.115Z,16.67
2023-11-12T10:03:37.341Z,17.38
2023-11-12T10:06:06.952Z,16.67
2023-11-12T10:08:35.587Z,16.42
2023-11-12T10:11:15.120Z,16.00
2023-11-12T10:13:43.675Z,14.95
2023-11-12T10:16:30.431Z,17.15
2023-11-12T10:19:09.798Z,16.42
2023-11-12T10:21:37.773Z,16.45
2023-11-12T10:24:06.796Z,17.00
2023-11-12T10:26:36.047Z,17.45
2023-11-12T10:29:04.407Z,16.92
2023-11-12T10:31:40.437Z,16.10
2023-11-12T10:34:10.095Z,15.55
2023-11-12T10:36:38.528Z,15.70
2023-11-12T10:39:11.247Z,15.93
2023-11-12T10:41:40.359Z,16.67
2023-11-12T10:44:08.961Z,15.73
2023-11-12T10:46:41.226Z,14.98
2023-11-12T10:49:11.791Z,15.85
2023-11-12T10:51:40.932Z,14.98
2023-11-12T10:54:12.656Z,16.17
2023-11-12T10:56:40.728Z,16.08
2023-11-12T10:59:09.699Z,14.70
2023-11-12T11:01:38.436Z,15.32
2023-11-12T11:04:07.541Z,14.70
2023-11-12T11:06:37.247Z,14.57
2023-11-12T11:09:06.048Z,14.52
2023-11-12T11:11:34.368Z,14.15
2023-11-12T11:14:17.212Z,14.20
2023-11-12T11:16:49.235Z,14.85
2023-11-12T11:19:17.135Z,14.50
2023-11-12T11:22:10.472Z,13.60
2023-11-12T11:24:45.005Z,14.27
2023-11-12T11:27:13.858Z,13.93
2023-11-12T11:29:57.101Z,14.52
2023-11-12T11:32:24.958Z,14.18
2023-11-12T11:34:53.261Z,14.77
2023-11-12T11:37:23.984Z,13.85
2023-11-12T11:39:53.252Z,13.45
2023-11-12T11:42:21.273Z,13.95
2023-11-12T11:44:50.661Z,13.00
2023-11-12T11:47:19.597Z,12.98
2023-11-12T11:49:48.262Z,13.93
2023-11-12T11:52:20.039Z,14.25
2023-11-12T11:54:54.927Z,13.13
2023-11-12T11:57:24.996Z,13.73
2023-11-12T11:59:53.138Z,13.27
2023-11-12T12:02:22.645Z,13.32
2023-11-12T12:04:51.736Z,11.73
2023-11-12T12:07:23.489Z,10.85
2023-11-12T12:09:53.702Z,11.55
2023-11-12T12:12:25.517Z,11.52
2023-11-12T12:14:56.267Z,11.77
2023-11-12T12:17:24.874Z,10.77
2023-11-12T12:19:52.884Z,10.73
2023-11-12T12:22:24.207Z,11.18
2023-11-12T12:24:56.950Z,11.18
2023-11-12T12:27:25.203Z,11.00
2023-11-12T12:29:54.144Z,12.18
2023-11-12T12:32:22.866Z,12.00
2023-11-12T12:34:57.488Z,11.77
2023-11-12T12:37:27.248Z,11.43
2023-11-12T12:40:02.586Z,12.00
2023-11-12T12:42:32.498Z,11.93
2023-11-12T12:45:01.597Z,11.98
2023-11-12T12:47:35.142Z,11.93
2023-11-12T12:50:17.136Z,11.73
2023-11-12T12:52:46.775Z,12.10
2023-11-12T12:55:18.364Z,11.23
2023-11-12T12:57:50.964Z,12.52
2023-11-12T13:00:21.622Z,12.70
2023-11-12T13:02:50.829Z,12.18
2023-11-12T13:05:21.397Z,13.35
2023-11-12T13:07:50.423Z,12.35
2023-11-12T13:10:21.831Z,12.25
2023-11-12T13:12:51.686Z,12.13
2023-11-12T13:15:19.763Z,12.60
2023-11-12T13:17:47.751Z,13.15
2023-11-12T13:20:15.734Z,12.85
2023-11-12T13:22:43.791Z,12.15
2023-11-12T13:25:13.406Z,13.88
2023-11-12T13:27:45.691Z,13.20
2023-11-12T13:30:13.964Z,12.27
2023-11-12T13:32:43.026Z,12.48
2023-11-12T13:35:12.596Z,13.75
2023-11-12T13:37:41.700Z,13.00
2023-11-12T13:40:15.292Z,11.23
2023-11-12T13:42:44.875Z,12.35
2023-11-12T13:45:13.288Z,11.63
2023-11-12T13:47:43.533Z,12.23
2023-11-12T13:50:15.578Z,13.75
2023-11-12T13:52:45.560Z,11.73
2023-11-12T13:55:18.987Z,12.35
2023-11-12T13:57:49.467Z,12.40
2023-11-12T14:00:18.972Z,12.02
2023-11-12T14:02:47.610Z,13.32
2023-11-12T14:05:17.924Z,11.57
2023-11-12T14:07:45.936Z,12.90
2023-11-12T14:10:19.455Z,11.90
2023-11-12T14:12:54.335Z,12.60
2023-11-12T14:15:23.557Z,12.10
2023-11-12T14:17:54.777Z,12.13
2023-11-12T14:20:26.830Z,13.05
2023-11-12T14:22:56.577Z,12.05
2023-11-12T14:25:27.139Z,13.32
2023-11-12T14:27:56.428Z,13.32
2023-11-12T14:30:24.192Z,13.75
2023-11-12T14:32:52.820Z,14.15
2023-11-12T14:35:23.603Z,14.32
2023-11-12T14:37:51.381Z,14.07
2023-11-12T14:40:19.677Z,13.50
2023-11-12T14:42:48.567Z,14.10
2023-11-12T14:45:25.786Z,15.02
2023-11-12T14:48:00.082Z,14.48
2023-11-12T14:50:27.943Z,15.30
2023-11-12T14:52:58.726Z,15.38
2023-11-12T14:55:29.036Z,15.27
2023-11-12T14:57:57.668Z,15.85
2023-11-12T15:00:31.532Z,13.73
2023-11-12T15:03:00.404Z,14.98
2023-11-12T15:05:29.181Z,16.30
2023-11-12T15:07:56.912Z,15.30
2023-11-12T15:10:24.950Z,16.17
2023-11-12T15:12:53.580Z,14.93
2023-11-12T15:15:23.034Z,15.68
2023-11-12T15:17:53.853Z,16.48
2023-11-12T15:20:22.150Z,16.20
2023-11-12T15:22:51.734Z,16.70
2023-11-12T15:25:20.531Z,16.60
2023-11-12T15:27:50.569Z,16.35
2023-11-12T15:30:20.425Z,17.42
2023-11-12T15:32:49.198Z,17.05
2023-11-12T15:35:19.742Z,23.10
2023-11-12T15:37:47.533Z,18.80
2023-11-12T15:40:23.899Z,17.75
2023-11-12T15:42:53.354Z,18.60
2023-11-12T15:45:24.462Z,20.40
2023-11-12T15:47:52.451Z,19.38
2023-11-12T15:50:23.762Z,19.20
2023-11-12T15:52:52.853Z,21.67
2023-11-12T15:55:21.280Z,19.75
2023-11-12T15:57:49.073Z,18.98
2023-11-12T16:00:19.123Z,18.38
2023-11-12T16:02:48.199Z,18.40
2023-11-12T16:05:16.235Z,17.73
2023-11-12T16:07:47.215Z,19.65
2023-11-12T16:10:17.656Z,19.70
2023-11-12T16:12:45.290Z,19.42
2023-11-12T16:15:16.345Z,19.70
2023-11-12T16:17:45.380Z,20.95
2023-11-12T16:20:14.362Z,19.05
2023-11-12T16:22:45.466Z,19.45
2023-11-12T16:25:15.112Z,20.17
2023-11-12T16:27:43.577Z,20.00
2023-11-12T16:30:12.831Z,19.15
2023-11-12T16:32:42.387Z,19.80
2023-11-12T16:35:12.000Z,18.85
2023-11-12T16:37:47.798Z,19.92
2023-11-12T16:40:17.575Z,19.90
2023-11-12T16:42:46.554Z,19.80
2023-11-12T16:45:14.905Z,21.55
2023-11-12T16:47:42.829Z,21.55
2023-11-12T16:50:13.151Z,20.75
2023-11-12T16:52:40.882Z,24.80
2023-11-12T16:55:09.253Z,20.90
2023-11-12T16:57:38.255Z,20.25
2023-11-12T17:00:08.258Z,21.00
2023-11-12T17:02:36.934Z,20.83
2023-11-12T17:05:05.638Z,21.70
2023-11-12T17:07:34.837Z,22.77
2023-11-12T17:10:02.943Z,23.05
2023-11-12T17:12:30.709Z,22.58
2023-11-12T17:15:01.338Z,24.98
2023-11-12T17:17:30.489Z,22.42
2023-11-12T17:19:59.697Z,20.77
2023-11-12T17:22:27.620Z,23.52
2023-11-12T17:24:55.220Z,23.35
2023-11-12T17:27:23.773Z,23.83
2023-11-12T17:29:52.219Z,22.10
2023-11-12T17:32:21.229Z,24.02
2023-11-12T17:34:48.893Z,23.80
2023-11-12T17:37:17.120Z,22.63
2023-11-12T17:39:44.812Z,23.63
2023-11-12T17:42:13.261Z,24.23
2023-11-12T17:44:41.627Z,23.80
2023-11-12T17:47:11.128Z,23.45
2023-11-12T17:49:40.646Z,22.63
2023-11-12T17:52:08.806Z,22.40
2023-11-12T17:54:38.583Z,23.20
2023-11-12T17:57:07.153Z,32.58
2023-11-12T17:59:35.445Z,27.95
2023-11-12T18:02:03.166Z,27.40
2023-11-12T18:04:31.317Z,28.63
2023-11-12T18:07:00.456Z,23.38
2023-11-12T18:09:28.579Z,24.42
2023-11-12T18:11:56.310Z,24.42
2023-11-12T18:14:23.975Z,24.15
2023-11-12T18:16:52.101Z,24.33
2023-11-12T18:19:20.063Z,23.23
2023-11-12T18:21:49.833Z,23.38
2023-11-12T18:24:19.651Z,23.27
2023-11-12T18:26:51.148Z,23.35
2023-11-12T18:29:18.876Z,23.52
2023-11-12T18:31:49.445Z,23.13
2023-11-12T18:34:17.684Z,24.58
2023-11-12T18:36:46.462Z,24.52
2023-11-12T18:39:14.314Z,23.05
2023-11-12T18:41:45.056Z,22.30
2023-11-12T18:44:14.764Z,23.98
2023-11-12T18:46:44.035Z,23.58
2023-11-12T18:49:12.107Z,24.17
2023-11-12T18:51:39.801Z,26.05
2023-11-12T18:54:08.119Z,26.98
2023-11-12T18:56:36.223Z,22.30
2023-11-12T18:59:09.797Z,21.77
2023-11-12T19:01:40.223Z,23.13
2023-11-12T19:04:08.806Z,20.25
2023-11-12T19:06:37.812Z,22.08
2023-11-12T19:09:06.065Z,20.60
2023-11-12T19:11:33.980Z,23.00
2023-11-12T19:14:02.873Z,23.00
2023-11-12T19:16:32.774Z,21.98
2023-11-12T19:19:00.658Z,20.38
2023-11-12T19:21:28.216Z,21.70
2023-11-12T19:23:56.544Z,20.92
2023-11-12T19:26:25.676Z,21.10
2023-11-12T19:28:53.315Z,19.67
2023-11-12T19:31:30.530Z,20.73
2023-11-12T19:34:02.758Z,20.75
2023-11-12T19:36:30.414Z,20.90
2023-11-12T19:38:58.029Z,22.45
2023-11-12T19:41:25.922Z,30.73
2023-11-12T19:43:54.562Z,24.30
2023-11-12T19:46:22.788Z,23.98
2023-11-12T19:48:53.278Z,24.50
2023-11-12T19:51:22.614Z,22.83
2023-11-12T19:53:50.395Z,22.90
2023-11-12T19:56:18.316Z,22.38
2023-11-12T19:58:47.321Z,22.10
2023-11-12T20:01:15.133Z,24.35
2023-11-12T20:03:42.896Z,21.88
2023-11-12T20:06:13.007Z,22.45
2023-11-12T20:08:42.049Z,22.27
2023-11-12T20:11:10.273Z,22.88
2023-11-12T20:13:40.025Z,22.67
2023-11-12T20:16:10.254Z,23.08
2023-11-12T20:18:38.452Z,23.92
2023-11-12T20:21:10.582Z,23.23
2023-11-12T20:23:39.076Z,26.08
2023-11-12T20:26:09.624Z,24.08
2023-11-12T20:28:38.111Z,26.38
2023-11-12T20:31:06.155Z,28.50
2023-11-12T20:33:33.776Z,25.35
2023-11-12T20:36:01.822Z,26.15
2023-11-12T20:38:29.514Z,26.15
2023-11-12T20:40:57.477Z,25.38
2023-11-12T20:43:26.763Z,25.13
2023-11-12T20:45:55.098Z,25.52
2023-11-12T20:48:23.216Z,25.92
2023-11-12T20:50:51.463Z,25.27
2023-11-12T20:53:19.255Z,24.17
2023-11-12T20:55:46.990Z,25.00
2023-11-12T20:58:15.161Z,26.42
2023-11-12T21:00:44.871Z,25.13
2023-11-12T21:03:12.622Z,26.15
2023-11-12T21:05:40.438Z,24.88
2023-11-12T21:08:08.092Z,26.65
2023-11-12T21:10:36.589Z,25.40
2023-11-12T21:13:04.491Z,26.30
2023-11-12T21:15:33.640Z,26.80
2023-11-12T21:18:04.227Z,25.27
2023-11-12T21:20:33.731Z,25.67
2023-11-12T21:23:01.367Z,27.98
2023-11-12T21:25:29.567Z,25.50
2023-11-12T21:27:57.516Z,26.25
2023-11-12T21:30:27.190Z,27.08
2023-11-12T21:32:58.379Z,27.50
2023-11-12T21:35:28.419Z,27.60
2023-11-12T21:37:56.015Z,27.58
2023-11-12T21:40:23.696Z,29.00
2023-11-12T21:42:52.621Z,26.95
2023-11-12T21:45:23.206Z,28.83
2023-11-12T21:47:51.109Z,28.50
2023-11-12T21:50:18.958Z,28.63
2023-11-12T21:52:48.014Z,27.92
2023-11-12T21:55:16.093Z,27.75
2023-11-12T21:57:44.329Z,29.50
2023-11-12T22:00:13.884Z,27.15
2023-11-12T22:02:42.990Z,26.05
2023-11-12T22:05:13.076Z,26.95
2023-11-12T22:07:41.039Z,28.77
2023-11-12T22:10:13.017Z,26.77
2023-11-12T22:12:40.917Z,28.95
2023-11-12T22:15:13.925Z,28.35
2023-11-12T22:17:42.460Z,28.17
2023-11-12T22:20:14.961Z,29.73
2023-11-12T22:22:43.629Z,28.23
2023-11-12T22:25:14.843Z,29.23
2023-11-12T22:27:44.368Z,29.00
2023-11-12T22:30:14.363Z,28.90
2023-11-12T22:32:42.028Z,30.73
2023-11-12T22:35:10.541Z,27.80
2023-11-12T22:37:38.354Z,27.73
2023-11-12T22:40:06.807Z,27.58
2023-11-12T22:42:36.443Z,28.60
2023-11-12T22:45:04.448Z,29.48
2023-11-12T22:47:32.696Z,29.27
2023-11-12T22:50:01.276Z,30.58
2023-11-12T22:52:28.952Z,29.55
2023-11-12T22:54:56.532Z,30.38
2023-11-12T22:57:24.634Z,30.73
2023-11-12T22:59:54.004Z,31.13
2023-11-12T23:02:22.296Z,31.00
2023-11-12T23:04:50.197Z,31.15
2023-11-12T23:07:18.929Z,30.73
2023-11-12T23:09:46.860Z,30.08
2023-11-12T23:12:17.521Z,30.67
2023-11-12T23:14:46.442Z,31.50
2023-11-12T23:17:17.254Z,31.17
2023-11-12T23:19:45.112Z,31.73
2023-11-12T23:22:15.694Z,31.33
2023-11-12T23:24:43.698Z,31.20
2023-11-12T23:27:11.494Z,33.05
2023-11-12T23:29:39.633Z,33.08
2023-11-12T23:32:09.956Z,32.65
2023-11-12T23:34:39.494Z,32.88
2023-11-12T23:37:08.572Z,31.60
2023-11-12T23:39:37.282Z,32.58
2023-11-12T23:42:05.351Z,34.28
2023-11-12T23:44:33.536Z,33.60
2023-11-12T23:47:01.221Z,33.53
2023-11-12T23:49:28.673Z,32.67
2023-11-12T23:51:58.360Z,33.75
2023-11-12T23:54:26.172Z,33.15
2023-11-12T23:56:55.052Z,33.35
2023-11-12T23:59:22.980Z,32.42
